sensor_id;sensor_type;location;lat;lon;timestamp;temperature;humidity
63537;DHT22;49686;51.880;5.632;2023-01-28T00:01:20;0.70;99.90
63537;DHT22;49686;51.880;5.632;2023-01-28T00:03:49;0.70;99.90
63537;DHT22;49686;51.880;5.632;2023-01-28T00:06:15;0.70;99.90
63537;DHT22;49686;51.880;5.632;2023-01-28T00:08:42;0.70;99.90
63537;DHT22;49686;51.880;5.632;2023-01-28T00:11:10;0.70;99.90
63537;DHT22;49686;51.880;5.632;2023-01-28T00:13:37;0.70;99.90
63537;DHT22;49686;51.880;5.632;2023-01-28T00:16:06;0.70;99.90
63537;DHT22;49686;51.880;5.632;2023-01-28T00:18:34;0.70;99.90
63537;DHT22;49686;51.880;5.632;2023-01-28T00:21:04;0.70;99.90
63537;DHT22;49686;51.880;5.632;2023-01-28T00:23:32;0.70;99.90
63537;DHT22;49686;51.880;5.632;2023-01-28T00:26:00;0.60;99.90
63537;DHT22;49686;51.880;5.632;2023-01-28T00:28:28;0.70;99.90
63537;DHT22;49686;51.880;5.632;2023-01-28T00:30:55;0.70;99.90
63537;DHT22;49686;51.880;5.632;2023-01-28T00:33:24;0.70;99.90
63537;DHT22;49686;51.880;5.632;2023-01-28T00:35:57;0.70;99.90
63537;DHT22;49686;51.880;5.632;2023-01-28T00:38:24;0.70;99.90
63537;DHT22;49686;51.880;5.632;2023-01-28T00:40:51;0.60;99.90
63537;DHT22;49686;51.880;5.632;2023-01-28T00:43:18;0.60;99.90
63537;DHT22;49686;51.880;5.632;2023-01-28T00:45:45;0.60;99.90
63537;DHT22;49686;51.880;5.632;2023-01-28T00:48:15;0.60;99.90
63537;DHT22;49686;51.880;5.632;2023-01-28T00:50:43;0.60;99.90
63537;DHT22;49686;51.880;5.632;2023-01-28T00:53:10;0.60;99.90
63537;DHT22;49686;51.880;5.632;2023-01-28T00:55:37;0.50;99.90
63537;DHT22;49686;51.880;5.632;2023-01-28T00:58:04;0.50;99.90
63537;DHT22;49686;51.880;5.632;2023-01-28T01:00:31;0.50;99.90
63537;DHT22;49686;51.880;5.632;2023-01-28T01:02:58;0.50;99.90
63537;DHT22;49686;51.880;5.632;2023-01-28T01:05:25;0.50;99.90
63537;DHT22;49686;51.880;5.632;2023-01-28T01:07:54;0.60;99.90
63537;DHT22;49686;51.880;5.632;2023-01-28T01:10:21;0.50;99.90
63537;DHT22;49686;51.880;5.632;2023-01-28T01:12:48;0.50;99.90
63537;DHT22;49686;51.880;5.632;2023-01-28T01:15:16;0.50;99.90
63537;DHT22;49686;51.880;5.632;2023-01-28T01:17:45;0.50;99.90
63537;DHT22;49686;51.880;5.632;2023-01-28T01:20:14;0.50;99.90
63537;DHT22;49686;51.880;5.632;2023-01-28T01:22:41;0.50;99.90
63537;DHT22;49686;51.880;5.632;2023-01-28T01:25:11;0.50;99.90
63537;DHT22;49686;51.880;5.632;2023-01-28T01:27:42;0.50;99.90
63537;DHT22;49686;51.880;5.632;2023-01-28T01:30:10;0.50;99.90
63537;DHT22;49686;51.880;5.632;2023-01-28T01:32:37;0.50;99.90
63537;DHT22;49686;51.880;5.632;2023-01-28T01:35:05;0.50;99.90
63537;DHT22;49686;51.880;5.632;2023-01-28T01:37:33;0.40;99.90
63537;DHT22;49686;51.880;5.632;2023-01-28T01:40:00;0.40;99.90
63537;DHT22;49686;51.880;5.632;2023-01-28T01:42:28;0.30;99.90
63537;DHT22;49686;51.880;5.632;2023-01-28T01:44:57;0.40;99.90
63537;DHT22;49686;51.880;5.632;2023-01-28T01:47:29;0.30;99.90
63537;DHT22;49686;51.880;5.632;2023-01-28T01:49:58;0.30;99.90
63537;DHT22;49686;51.880;5.632;2023-01-28T01:52:30;0.30;99.90
63537;DHT22;49686;51.880;5.632;2023-01-28T01:55:00;0.30;99.90
63537;DHT22;49686;51.880;5.632;2023-01-28T01:57:32;0.20;99.90
63537;DHT22;49686;51.880;5.632;2023-01-28T02:00:02;0.30;99.90
63537;DHT22;49686;51.880;5.632;2023-01-28T02:02:33;0.20;99.90
63537;DHT22;49686;51.880;5.632;2023-01-28T02:05:01;0.20;99.90
63537;DHT22;49686;51.880;5.632;2023-01-28T02:07:30;0.20;99.90
63537;DHT22;49686;51.880;5.632;2023-01-28T02:09:57;0.20;99.90
63537;DHT22;49686;51.880;5.632;2023-01-28T02:12:28;0.20;99.90
63537;DHT22;49686;51.880;5.632;2023-01-28T02:15:01;0.20;99.90
63537;DHT22;49686;51.880;5.632;2023-01-28T02:17:29;0.20;99.90
63537;DHT22;49686;51.880;5.632;2023-01-28T02:19:58;0.20;99.90
63537;DHT22;49686;51.880;5.632;2023-01-28T02:22:36;0.20;99.90
63537;DHT22;49686;51.880;5.632;2023-01-28T02:25:31;0.20;99.90
63537;DHT22;49686;51.880;5.632;2023-01-28T02:28:12;0.10;99.90
63537;DHT22;49686;51.880;5.632;2023-01-28T02:30:47;0.10;99.90
63537;DHT22;49686;51.880;5.632;2023-01-28T02:33:18;0.10;99.90
63537;DHT22;49686;51.880;5.632;2023-01-28T02:35:51;0.10;99.90
63537;DHT22;49686;51.880;5.632;2023-01-28T02:38:22;0.10;99.90
63537;DHT22;49686;51.880;5.632;2023-01-28T02:40:55;0.10;99.90
63537;DHT22;49686;51.880;5.632;2023-01-28T02:43:31;0.10;99.90
63537;DHT22;49686;51.880;5.632;2023-01-28T02:45:58;0.10;99.90
63537;DHT22;49686;51.880;5.632;2023-01-28T02:48:25;0.10;99.90
63537;DHT22;49686;51.880;5.632;2023-01-28T02:50:59;0.10;99.90
63537;DHT22;49686;51.880;5.632;2023-01-28T02:53:33;0.00;99.90
63537;DHT22;49686;51.880;5.632;2023-01-28T02:56:10;0.00;99.90
63537;DHT22;49686;51.880;5.632;2023-01-28T02:58:44;0.10;99.90
63537;DHT22;49686;51.880;5.632;2023-01-28T03:01:18;0.10;99.90
63537;DHT22;49686;51.880;5.632;2023-01-28T03:03:57;0.00;99.90
63537;DHT22;49686;51.880;5.632;2023-01-28T03:06:29;0.00;99.90
63537;DHT22;49686;51.880;5.632;2023-01-28T03:09:00;0.00;99.90
63537;DHT22;49686;51.880;5.632;2023-01-28T03:11:30;0.00;99.90
63537;DHT22;49686;51.880;5.632;2023-01-28T03:13:59;0.00;99.90
63537;DHT22;49686;51.880;5.632;2023-01-28T03:16:26;0.10;99.90
63537;DHT22;49686;51.880;5.632;2023-01-28T03:18:54;0.10;99.90
63537;DHT22;49686;51.880;5.632;2023-01-28T03:21:23;0.10;99.90
63537;DHT22;49686;51.880;5.632;2023-01-28T03:23:55;0.00;99.90
63537;DHT22;49686;51.880;5.632;2023-01-28T03:26:26;0.00;99.90
63537;DHT22;49686;51.880;5.632;2023-01-28T03:29:00;0.00;99.90
63537;DHT22;49686;51.880;5.632;2023-01-28T03:31:32;0.10;99.90
63537;DHT22;49686;51.880;5.632;2023-01-28T03:34:00;0.10;99.90
63537;DHT22;49686;51.880;5.632;2023-01-28T03:36:28;0.10;99.90
63537;DHT22;49686;51.880;5.632;2023-01-28T03:38:57;0.10;99.90
63537;DHT22;49686;51.880;5.632;2023-01-28T03:41:25;0.00;99.90
63537;DHT22;49686;51.880;5.632;2023-01-28T03:43:52;0.10;99.90
63537;DHT22;49686;51.880;5.632;2023-01-28T03:46:21;0.10;99.90
63537;DHT22;49686;51.880;5.632;2023-01-28T03:48:47;0.10;99.90
63537;DHT22;49686;51.880;5.632;2023-01-28T03:51:15;0.10;99.90
63537;DHT22;49686;51.880;5.632;2023-01-28T03:53:42;0.10;99.90
63537;DHT22;49686;51.880;5.632;2023-01-28T03:56:08;0.00;99.90
63537;DHT22;49686;51.880;5.632;2023-01-28T03:58:35;0.10;99.90
63537;DHT22;49686;51.880;5.632;2023-01-28T04:01:02;0.00;99.90
63537;DHT22;49686;51.880;5.632;2023-01-28T04:03:30;0.00;99.90
63537;DHT22;49686;51.880;5.632;2023-01-28T04:05:58;0.00;99.90
63537;DHT22;49686;51.880;5.632;2023-01-28T04:08:25;0.00;99.90
63537;DHT22;49686;51.880;5.632;2023-01-28T04:10:53;0.00;99.90
63537;DHT22;49686;51.880;5.632;2023-01-28T04:13:20;0.00;99.90
63537;DHT22;49686;51.880;5.632;2023-01-28T04:15:46;0.00;99.90
63537;DHT22;49686;51.880;5.632;2023-01-28T04:18:14;0.00;99.90
63537;DHT22;49686;51.880;5.632;2023-01-28T04:20:42;0.00;99.90
63537;DHT22;49686;51.880;5.632;2023-01-28T04:23:08;0.00;99.90
63537;DHT22;49686;51.880;5.632;2023-01-28T04:25:35;-0.10;99.90
63537;DHT22;49686;51.880;5.632;2023-01-28T04:28:02;0.00;99.90
63537;DHT22;49686;51.880;5.632;2023-01-28T04:30:29;0.00;99.90
63537;DHT22;49686;51.880;5.632;2023-01-28T04:32:57;0.00;99.90
63537;DHT22;49686;51.880;5.632;2023-01-28T04:35:23;-0.10;99.90
63537;DHT22;49686;51.880;5.632;2023-01-28T04:37:52;0.00;99.90
63537;DHT22;49686;51.880;5.632;2023-01-28T04:40:19;-0.10;99.90
63537;DHT22;49686;51.880;5.632;2023-01-28T04:42:52;-0.10;99.90
63537;DHT22;49686;51.880;5.632;2023-01-28T04:45:19;-0.10;99.90
63537;DHT22;49686;51.880;5.632;2023-01-28T04:47:46;-0.10;99.90
63537;DHT22;49686;51.880;5.632;2023-01-28T04:50:15;-0.10;99.90
63537;DHT22;49686;51.880;5.632;2023-01-28T04:52:42;-0.10;99.90
63537;DHT22;49686;51.880;5.632;2023-01-28T04:55:10;-0.10;99.90
63537;DHT22;49686;51.880;5.632;2023-01-28T04:57:37;-0.20;99.90
63537;DHT22;49686;51.880;5.632;2023-01-28T05:00:07;-0.10;99.90
63537;DHT22;49686;51.880;5.632;2023-01-28T05:02:34;-0.10;99.90
63537;DHT22;49686;51.880;5.632;2023-01-28T05:05:01;-0.20;99.90
63537;DHT22;49686;51.880;5.632;2023-01-28T05:07:27;-0.10;99.90
63537;DHT22;49686;51.880;5.632;2023-01-28T05:09:54;-0.20;99.90
63537;DHT22;49686;51.880;5.632;2023-01-28T05:12:22;-0.20;99.90
63537;DHT22;49686;51.880;5.632;2023-01-28T05:14:49;-0.10;99.90
63537;DHT22;49686;51.880;5.632;2023-01-28T05:17:16;-0.20;99.90
63537;DHT22;49686;51.880;5.632;2023-01-28T05:19:45;-0.20;99.90
63537;DHT22;49686;51.880;5.632;2023-01-28T05:22:15;-0.20;99.90
63537;DHT22;49686;51.880;5.632;2023-01-28T05:24:41;-0.20;99.90
63537;DHT22;49686;51.880;5.632;2023-01-28T05:27:08;-0.20;99.90
63537;DHT22;49686;51.880;5.632;2023-01-28T05:29:36;-0.20;99.90
63537;DHT22;49686;51.880;5.632;2023-01-28T05:32:04;-0.20;99.90
63537;DHT22;49686;51.880;5.632;2023-01-28T05:34:31;-0.20;99.90
63537;DHT22;49686;51.880;5.632;2023-01-28T05:36:57;-0.20;99.90
63537;DHT22;49686;51.880;5.632;2023-01-28T05:39:24;-0.20;99.90
63537;DHT22;49686;51.880;5.632;2023-01-28T05:41:51;-0.20;99.90
63537;DHT22;49686;51.880;5.632;2023-01-28T05:44:18;-0.20;99.90
63537;DHT22;49686;51.880;5.632;2023-01-28T05:46:46;-0.20;99.90
63537;DHT22;49686;51.880;5.632;2023-01-28T05:49:13;-0.20;99.90
63537;DHT22;49686;51.880;5.632;2023-01-28T05:51:40;-0.20;99.90
63537;DHT22;49686;51.880;5.632;2023-01-28T05:54:08;-0.20;99.90
63537;DHT22;49686;51.880;5.632;2023-01-28T05:56:35;-0.20;99.90
63537;DHT22;49686;51.880;5.632;2023-01-28T05:59:03;-0.20;99.90
63537;DHT22;49686;51.880;5.632;2023-01-28T06:01:30;-0.20;99.90
63537;DHT22;49686;51.880;5.632;2023-01-28T06:03:58;-0.20;99.90
63537;DHT22;49686;51.880;5.632;2023-01-28T06:06:25;-0.20;99.90
63537;DHT22;49686;51.880;5.632;2023-01-28T06:08:51;-0.30;99.90
63537;DHT22;49686;51.880;5.632;2023-01-28T06:11:18;-0.30;99.90
63537;DHT22;49686;51.880;5.632;2023-01-28T06:13:45;-0.30;99.90
63537;DHT22;49686;51.880;5.632;2023-01-28T06:16:12;-0.30;99.90
63537;DHT22;49686;51.880;5.632;2023-01-28T06:18:39;-0.30;99.90
63537;DHT22;49686;51.880;5.632;2023-01-28T06:21:07;-0.30;99.90
63537;DHT22;49686;51.880;5.632;2023-01-28T06:23:34;-0.30;99.90
63537;DHT22;49686;51.880;5.632;2023-01-28T06:26:00;-0.30;99.90
63537;DHT22;49686;51.880;5.632;2023-01-28T06:28:27;-0.30;99.90
63537;DHT22;49686;51.880;5.632;2023-01-28T06:30:54;-0.30;99.90
63537;DHT22;49686;51.880;5.632;2023-01-28T06:33:21;-0.30;99.90
63537;DHT22;49686;51.880;5.632;2023-01-28T06:35:48;-0.30;99.90
63537;DHT22;49686;51.880;5.632;2023-01-28T06:38:16;-0.30;99.90
63537;DHT22;49686;51.880;5.632;2023-01-28T06:40:43;-0.30;99.90
63537;DHT22;49686;51.880;5.632;2023-01-28T06:43:10;-0.40;99.90
63537;DHT22;49686;51.880;5.632;2023-01-28T06:45:36;-0.40;99.90
63537;DHT22;49686;51.880;5.632;2023-01-28T06:48:04;-0.40;99.90
63537;DHT22;49686;51.880;5.632;2023-01-28T06:50:34;-0.40;99.90
63537;DHT22;49686;51.880;5.632;2023-01-28T06:53:01;-0.40;99.90
63537;DHT22;49686;51.880;5.632;2023-01-28T06:55:29;-0.40;99.90
63537;DHT22;49686;51.880;5.632;2023-01-28T06:57:55;-0.40;99.90
63537;DHT22;49686;51.880;5.632;2023-01-28T07:00:22;-0.40;99.90
63537;DHT22;49686;51.880;5.632;2023-01-28T07:02:49;-0.50;99.90
63537;DHT22;49686;51.880;5.632;2023-01-28T07:05:16;-0.40;99.90
63537;DHT22;49686;51.880;5.632;2023-01-28T07:07:43;-0.40;99.90
63537;DHT22;49686;51.880;5.632;2023-01-28T07:10:10;-0.40;99.90
63537;DHT22;49686;51.880;5.632;2023-01-28T07:12:38;-0.40;99.90
63537;DHT22;49686;51.880;5.632;2023-01-28T07:15:06;-0.40;99.90
63537;DHT22;49686;51.880;5.632;2023-01-28T07:17:33;-0.40;99.90
63537;DHT22;49686;51.880;5.632;2023-01-28T07:20:00;-0.40;99.90
63537;DHT22;49686;51.880;5.632;2023-01-28T07:22:27;-0.40;99.90
63537;DHT22;49686;51.880;5.632;2023-01-28T07:24:53;-0.40;99.90
63537;DHT22;49686;51.880;5.632;2023-01-28T07:27:20;-0.40;99.90
63537;DHT22;49686;51.880;5.632;2023-01-28T07:29:48;-0.40;99.90
63537;DHT22;49686;51.880;5.632;2023-01-28T07:32:15;-0.40;99.90
63537;DHT22;49686;51.880;5.632;2023-01-28T07:34:42;-0.50;99.90
63537;DHT22;49686;51.880;5.632;2023-01-28T07:37:09;-0.50;99.90
63537;DHT22;49686;51.880;5.632;2023-01-28T07:39:35;-0.50;99.90
63537;DHT22;49686;51.880;5.632;2023-01-28T07:42:02;-0.50;99.90
63537;DHT22;49686;51.880;5.632;2023-01-28T07:44:29;-0.40;99.90
63537;DHT22;49686;51.880;5.632;2023-01-28T07:46:57;-0.50;99.90
63537;DHT22;49686;51.880;5.632;2023-01-28T07:49:24;-0.40;99.90
63537;DHT22;49686;51.880;5.632;2023-01-28T07:51:51;-0.40;99.90
63537;DHT22;49686;51.880;5.632;2023-01-28T07:54:17;-0.40;99.90
63537;DHT22;49686;51.880;5.632;2023-01-28T07:56:44;-0.40;99.90
63537;DHT22;49686;51.880;5.632;2023-01-28T07:59:11;-0.40;99.90
63537;DHT22;49686;51.880;5.632;2023-01-28T08:01:38;-0.40;99.90
63537;DHT22;49686;51.880;5.632;2023-01-28T08:04:06;-0.40;99.90
63537;DHT22;49686;51.880;5.632;2023-01-28T08:06:33;-0.40;99.90
63537;DHT22;49686;51.880;5.632;2023-01-28T08:09:00;-0.40;99.90
63537;DHT22;49686;51.880;5.632;2023-01-28T08:11:27;-0.40;99.90
63537;DHT22;49686;51.880;5.632;2023-01-28T08:13:53;-0.40;99.90
63537;DHT22;49686;51.880;5.632;2023-01-28T08:16:20;-0.40;99.90
63537;DHT22;49686;51.880;5.632;2023-01-28T08:18:47;-0.40;99.90
63537;DHT22;49686;51.880;5.632;2023-01-28T08:21:15;-0.40;99.90
63537;DHT22;49686;51.880;5.632;2023-01-28T08:23:42;-0.30;99.90
63537;DHT22;49686;51.880;5.632;2023-01-28T08:26:08;-0.30;99.90
63537;DHT22;49686;51.880;5.632;2023-01-28T08:28:35;-0.30;99.90
63537;DHT22;49686;51.880;5.632;2023-01-28T08:31:02;-0.30;99.90
63537;DHT22;49686;51.880;5.632;2023-01-28T08:33:29;-0.30;99.90
63537;DHT22;49686;51.880;5.632;2023-01-28T08:35:56;-0.30;99.90
63537;DHT22;49686;51.880;5.632;2023-01-28T08:38:27;-0.40;99.90
63537;DHT22;49686;51.880;5.632;2023-01-28T08:40:55;-0.30;99.90
63537;DHT22;49686;51.880;5.632;2023-01-28T08:43:22;-0.40;99.90
63537;DHT22;49686;51.880;5.632;2023-01-28T08:45:49;-0.40;99.90
63537;DHT22;49686;51.880;5.632;2023-01-28T08:48:17;-0.40;99.90
63537;DHT22;49686;51.880;5.632;2023-01-28T08:50:45;-0.40;99.90
63537;DHT22;49686;51.880;5.632;2023-01-28T08:53:13;-0.40;99.90
63537;DHT22;49686;51.880;5.632;2023-01-28T08:55:42;-0.40;99.90
63537;DHT22;49686;51.880;5.632;2023-01-28T08:58:10;-0.40;99.90
63537;DHT22;49686;51.880;5.632;2023-01-28T09:00:38;-0.40;99.90
63537;DHT22;49686;51.880;5.632;2023-01-28T09:03:05;-0.50;99.90
63537;DHT22;49686;51.880;5.632;2023-01-28T09:05:33;-0.40;99.90
63537;DHT22;49686;51.880;5.632;2023-01-28T09:08:00;-0.40;99.90
63537;DHT22;49686;51.880;5.632;2023-01-28T09:10:27;-0.50;99.90
63537;DHT22;49686;51.880;5.632;2023-01-28T09:12:55;-0.40;99.90
63537;DHT22;49686;51.880;5.632;2023-01-28T09:15:22;-0.40;99.90
63537;DHT22;49686;51.880;5.632;2023-01-28T09:17:49;-0.30;99.90
63537;DHT22;49686;51.880;5.632;2023-01-28T09:20:16;-0.30;99.90
63537;DHT22;49686;51.880;5.632;2023-01-28T09:22:43;-0.30;99.90
63537;DHT22;49686;51.880;5.632;2023-01-28T09:25:10;-0.20;99.90
63537;DHT22;49686;51.880;5.632;2023-01-28T09:27:37;-0.20;99.90
63537;DHT22;49686;51.880;5.632;2023-01-28T09:30:06;-0.20;99.90
63537;DHT22;49686;51.880;5.632;2023-01-28T09:32:33;-0.20;99.90
63537;DHT22;49686;51.880;5.632;2023-01-28T09:35:00;-0.30;99.90
63537;DHT22;49686;51.880;5.632;2023-01-28T09:37:27;-0.20;99.90
63537;DHT22;49686;51.880;5.632;2023-01-28T09:39:54;-0.20;99.90
63537;DHT22;49686;51.880;5.632;2023-01-28T09:45:21;-0.20;99.90
63537;DHT22;49686;51.880;5.632;2023-01-28T09:47:52;-0.20;99.90
63537;DHT22;49686;51.880;5.632;2023-01-28T09:50:22;-0.20;99.90
63537;DHT22;49686;51.880;5.632;2023-01-28T09:52:51;-0.20;99.90
63537;DHT22;49686;51.880;5.632;2023-01-28T09:55:28;-0.10;99.90
63537;DHT22;49686;51.880;5.632;2023-01-28T09:57:55;0.00;99.90
63537;DHT22;49686;51.880;5.632;2023-01-28T10:00:27;0.10;99.90
63537;DHT22;49686;51.880;5.632;2023-01-28T10:03:05;0.30;99.90
63537;DHT22;49686;51.880;5.632;2023-01-28T10:05:41;0.30;99.90
63537;DHT22;49686;51.880;5.632;2023-01-28T10:08:21;0.30;99.90
63537;DHT22;49686;51.880;5.632;2023-01-28T10:10:58;0.30;99.90
63537;DHT22;49686;51.880;5.632;2023-01-28T10:13:32;0.50;99.90
63537;DHT22;49686;51.880;5.632;2023-01-28T10:16:15;0.50;99.90
63537;DHT22;49686;51.880;5.632;2023-01-28T10:18:47;0.60;99.90
63537;DHT22;49686;51.880;5.632;2023-01-28T10:21:19;0.70;99.90
63537;DHT22;49686;51.880;5.632;2023-01-28T10:23:56;0.70;99.90
63537;DHT22;49686;51.880;5.632;2023-01-28T10:26:29;0.70;99.90
63537;DHT22;49686;51.880;5.632;2023-01-28T10:29:02;0.60;99.90
63537;DHT22;49686;51.880;5.632;2023-01-28T10:31:34;0.80;99.90
63537;DHT22;49686;51.880;5.632;2023-01-28T10:34:02;0.70;99.90
63537;DHT22;49686;51.880;5.632;2023-01-28T10:36:29;0.70;99.90
63537;DHT22;49686;51.880;5.632;2023-01-28T10:38:56;0.80;99.90
63537;DHT22;49686;51.880;5.632;2023-01-28T10:41:23;0.90;99.90
63537;DHT22;49686;51.880;5.632;2023-01-28T10:43:49;0.70;99.90
63537;DHT22;49686;51.880;5.632;2023-01-28T10:46:19;0.90;99.90
63537;DHT22;49686;51.880;5.632;2023-01-28T10:48:54;0.90;99.90
63537;DHT22;49686;51.880;5.632;2023-01-28T10:51:33;0.80;99.90
63537;DHT22;49686;51.880;5.632;2023-01-28T10:54:01;1.00;99.90
63537;DHT22;49686;51.880;5.632;2023-01-28T10:56:30;0.70;99.90
63537;DHT22;49686;51.880;5.632;2023-01-28T10:58:57;0.90;99.90
63537;DHT22;49686;51.880;5.632;2023-01-28T11:01:37;0.80;99.90
63537;DHT22;49686;51.880;5.632;2023-01-28T11:04:12;0.90;99.90
63537;DHT22;49686;51.880;5.632;2023-01-28T11:06:40;1.00;99.90
63537;DHT22;49686;51.880;5.632;2023-01-28T11:09:20;1.00;99.90
63537;DHT22;49686;51.880;5.632;2023-01-28T11:11:47;1.00;99.90
63537;DHT22;49686;51.880;5.632;2023-01-28T11:14:19;1.10;99.90
63537;DHT22;49686;51.880;5.632;2023-01-28T11:16:46;1.10;99.90
63537;DHT22;49686;51.880;5.632;2023-01-28T11:19:18;1.20;99.90
63537;DHT22;49686;51.880;5.632;2023-01-28T11:21:51;1.40;99.90
63537;DHT22;49686;51.880;5.632;2023-01-28T11:24:21;1.40;99.90
63537;DHT22;49686;51.880;5.632;2023-01-28T11:26:52;1.70;99.90
63537;DHT22;49686;51.880;5.632;2023-01-28T11:29:24;1.70;99.90
63537;DHT22;49686;51.880;5.632;2023-01-28T11:31:52;1.80;99.90
63537;DHT22;49686;51.880;5.632;2023-01-28T11:34:24;2.10;99.90
63537;DHT22;49686;51.880;5.632;2023-01-28T11:36:53;2.30;99.90
63537;DHT22;49686;51.880;5.632;2023-01-28T11:39:22;2.00;99.90
63537;DHT22;49686;51.880;5.632;2023-01-28T11:41:50;2.20;99.90
63537;DHT22;49686;51.880;5.632;2023-01-28T11:44:21;1.90;99.90
63537;DHT22;49686;51.880;5.632;2023-01-28T11:47:00;2.10;99.90
63537;DHT22;49686;51.880;5.632;2023-01-28T11:49:42;2.70;99.90
63537;DHT22;49686;51.880;5.632;2023-01-28T11:52:17;2.70;99.90
63537;DHT22;49686;51.880;5.632;2023-01-28T11:54:58;3.00;99.90
63537;DHT22;49686;51.880;5.632;2023-01-28T11:57:36;3.10;99.90
63537;DHT22;49686;51.880;5.632;2023-01-28T12:00:34;2.90;99.90
63537;DHT22;49686;51.880;5.632;2023-01-28T12:03:19;2.90;99.90
63537;DHT22;49686;51.880;5.632;2023-01-28T12:05:51;2.60;99.90
63537;DHT22;49686;51.880;5.632;2023-01-28T12:08:21;2.10;99.90
63537;DHT22;49686;51.880;5.632;2023-01-28T12:11:12;2.50;99.90
63537;DHT22;49686;51.880;5.632;2023-01-28T12:13:53;2.00;99.90
63537;DHT22;49686;51.880;5.632;2023-01-28T12:16:38;2.00;99.90
63537;DHT22;49686;51.880;5.632;2023-01-28T12:25:03;1.80;99.90
63537;DHT22;49686;51.880;5.632;2023-01-28T12:27:39;1.90;99.90
63537;DHT22;49686;51.880;5.632;2023-01-28T12:30:18;2.50;99.90
63537;DHT22;49686;51.880;5.632;2023-01-28T12:32:50;2.40;99.90
63537;DHT22;49686;51.880;5.632;2023-01-28T12:35:28;2.10;99.90
63537;DHT22;49686;51.880;5.632;2023-01-28T12:38:06;2.60;99.90
63537;DHT22;49686;51.880;5.632;2023-01-28T12:40:54;2.40;99.90
63537;DHT22;49686;51.880;5.632;2023-01-28T12:43:32;2.10;99.90
63537;DHT22;49686;51.880;5.632;2023-01-28T12:46:09;2.20;99.90
63537;DHT22;49686;51.880;5.632;2023-01-28T12:48:40;2.80;99.90
63537;DHT22;49686;51.880;5.632;2023-01-28T12:51:12;2.60;99.90
63537;DHT22;49686;51.880;5.632;2023-01-28T12:53:46;3.10;99.90
63537;DHT22;49686;51.880;5.632;2023-01-28T12:56:17;3.10;99.90
63537;DHT22;49686;51.880;5.632;2023-01-28T12:58:50;3.10;99.90
63537;DHT22;49686;51.880;5.632;2023-01-28T13:01:24;3.50;99.90
63537;DHT22;49686;51.880;5.632;2023-01-28T13:03:55;3.40;99.90
63537;DHT22;49686;51.880;5.632;2023-01-28T13:06:30;3.60;99.90
63537;DHT22;49686;51.880;5.632;2023-01-28T13:09:02;3.00;99.90
63537;DHT22;49686;51.880;5.632;2023-01-28T13:11:37;3.30;99.90
63537;DHT22;49686;51.880;5.632;2023-01-28T13:14:04;3.50;99.90
63537;DHT22;49686;51.880;5.632;2023-01-28T13:16:32;3.30;99.90
63537;DHT22;49686;51.880;5.632;2023-01-28T13:19:05;3.40;99.90
63537;DHT22;49686;51.880;5.632;2023-01-28T13:21:34;2.90;99.90
63537;DHT22;49686;51.880;5.632;2023-01-28T13:24:37;2.80;99.90
63537;DHT22;49686;51.880;5.632;2023-01-28T13:27:20;2.80;99.90
63537;DHT22;49686;51.880;5.632;2023-01-28T13:29:47;2.40;99.90
63537;DHT22;49686;51.880;5.632;2023-01-28T13:32:27;2.30;99.90
63537;DHT22;49686;51.880;5.632;2023-01-28T13:35:02;2.10;99.90
63537;DHT22;49686;51.880;5.632;2023-01-28T13:37:32;1.90;99.90
63537;DHT22;49686;51.880;5.632;2023-01-28T13:40:06;1.80;99.90
63537;DHT22;49686;51.880;5.632;2023-01-28T13:42:34;1.80;99.90
63537;DHT22;49686;51.880;5.632;2023-01-28T13:45:20;1.50;99.90
63537;DHT22;49686;51.880;5.632;2023-01-28T13:47:51;1.60;99.90
63537;DHT22;49686;51.880;5.632;2023-01-28T13:50:20;1.50;99.90
63537;DHT22;49686;51.880;5.632;2023-01-28T13:52:54;1.60;99.90
63537;DHT22;49686;51.880;5.632;2023-01-28T13:55:25;1.50;99.90
63537;DHT22;49686;51.880;5.632;2023-01-28T13:58:43;1.30;99.90
63537;DHT22;49686;51.880;5.632;2023-01-28T14:01:54;1.30;99.90
63537;DHT22;49686;51.880;5.632;2023-01-28T14:04:41;1.30;99.90
63537;DHT22;49686;51.880;5.632;2023-01-28T14:07:21;1.30;99.90
63537;DHT22;49686;51.880;5.632;2023-01-28T14:10:07;1.30;99.90
63537;DHT22;49686;51.880;5.632;2023-01-28T14:12:49;1.20;99.90
63537;DHT22;49686;51.880;5.632;2023-01-28T14:15:31;1.10;99.90
63537;DHT22;49686;51.880;5.632;2023-01-28T14:18:10;1.00;99.90
63537;DHT22;49686;51.880;5.632;2023-01-28T14:20:43;1.00;99.90
63537;DHT22;49686;51.880;5.632;2023-01-28T14:23:15;1.00;99.90
63537;DHT22;49686;51.880;5.632;2023-01-28T14:25:55;1.00;99.90
63537;DHT22;49686;51.880;5.632;2023-01-28T14:28:37;1.00;99.90
63537;DHT22;49686;51.880;5.632;2023-01-28T14:31:10;1.10;99.90
63537;DHT22;49686;51.880;5.632;2023-01-28T14:33:40;1.00;99.90
63537;DHT22;49686;51.880;5.632;2023-01-28T14:36:09;1.30;99.90
63537;DHT22;49686;51.880;5.632;2023-01-28T14:38:38;1.20;99.90
63537;DHT22;49686;51.880;5.632;2023-01-28T14:41:06;1.00;99.90
63537;DHT22;49686;51.880;5.632;2023-01-28T14:43:36;1.00;99.90
63537;DHT22;49686;51.880;5.632;2023-01-28T14:46:16;1.10;99.90
63537;DHT22;49686;51.880;5.632;2023-01-28T14:48:49;1.10;99.90
63537;DHT22;49686;51.880;5.632;2023-01-28T14:57:39;1.00;99.90
63537;DHT22;49686;51.880;5.632;2023-01-28T15:00:23;0.90;99.90
63537;DHT22;49686;51.880;5.632;2023-01-28T15:02:50;0.90;99.90
63537;DHT22;49686;51.880;5.632;2023-01-28T15:05:20;1.00;99.90
63537;DHT22;49686;51.880;5.632;2023-01-28T15:07:47;1.00;99.90
63537;DHT22;49686;51.880;5.632;2023-01-28T15:10:17;0.90;99.90
63537;DHT22;49686;51.880;5.632;2023-01-28T15:12:47;1.00;99.90
63537;DHT22;49686;51.880;5.632;2023-01-28T15:15:22;1.00;99.90
63537;DHT22;49686;51.880;5.632;2023-01-28T15:17:51;1.00;99.90
63537;DHT22;49686;51.880;5.632;2023-01-28T15:20:21;1.00;99.90
63537;DHT22;49686;51.880;5.632;2023-01-28T15:22:50;1.00;99.90
63537;DHT22;49686;51.880;5.632;2023-01-28T15:25:19;1.00;99.90
63537;DHT22;49686;51.880;5.632;2023-01-28T15:27:46;1.00;99.90
63537;DHT22;49686;51.880;5.632;2023-01-28T15:30:20;1.00;99.90
63537;DHT22;49686;51.880;5.632;2023-01-28T15:33:01;0.90;99.90
63537;DHT22;49686;51.880;5.632;2023-01-28T15:35:29;0.90;99.90
63537;DHT22;49686;51.880;5.632;2023-01-28T15:37:56;0.70;99.90
63537;DHT22;49686;51.880;5.632;2023-01-28T15:40:23;0.60;99.90
63537;DHT22;49686;51.880;5.632;2023-01-28T15:42:52;0.60;99.90
63537;DHT22;49686;51.880;5.632;2023-01-28T15:45:21;0.70;99.90
63537;DHT22;49686;51.880;5.632;2023-01-28T15:47:49;0.60;99.90
63537;DHT22;49686;51.880;5.632;2023-01-28T15:50:20;0.50;99.90
63537;DHT22;49686;51.880;5.632;2023-01-28T15:52:48;0.70;99.90
63537;DHT22;49686;51.880;5.632;2023-01-28T15:55:30;0.70;99.90
63537;DHT22;49686;51.880;5.632;2023-01-28T15:58:13;0.70;99.90
63537;DHT22;49686;51.880;5.632;2023-01-28T16:00:41;0.60;99.90
63537;DHT22;49686;51.880;5.632;2023-01-28T16:03:09;0.50;99.90
63537;DHT22;49686;51.880;5.632;2023-01-28T16:05:39;0.30;99.90
63537;DHT22;49686;51.880;5.632;2023-01-28T16:08:09;0.30;99.90
63537;DHT22;49686;51.880;5.632;2023-01-28T16:10:37;0.10;99.90
63537;DHT22;49686;51.880;5.632;2023-01-28T16:13:16;-0.10;99.90
63537;DHT22;49686;51.880;5.632;2023-01-28T16:15:46;-0.30;99.90